Time;durP1;ratioP1;P1;durP2;ratioP2;P2;SDS_P1;SDS_P2;PMS_P1;PMS_P2;Temp;Humidity;BMP_temperature;BMP_pressure;BME280_temperature;BME280_humidity;BME280_pressure;Samples;Min_cycle;Max_cycle;Signal;HPM_P1;HPM_P2
2022/03/16 07:46:08;;;;;;;196.32;100.15;;;;;;;2.44;83.02;100861.49;1870062;74;22071;-63
2022/03/16 07:48:36;;;;;;;;;;;;;;;2.41;83.04;100860.19;1817678;77;21031;-64
2022/03/16 07:51:03;;;;;;;153.02;83.10;;;;;;;2.44;82.95;100865.80;1821082;77;21362;-66
2022/03/16 07:53:31;;;;;;;148.60;80.38;;;;;;;2.50;82.74;100863.66;1825888;77;22172;-66
2022/03/16 07:55:58;;;;;;;;;;;;;;;2.56;82.56;100864.97;1822869;78;21019;-64
2022/03/16 14:36:26;;;;;;;51.70;35.65;;;;;;;6.06;76.63;101024.16;1862108;74;21972;-62
2022/03/16 14:38:50;;;;;;;48.52;34.00;;;;;;;5.74;76.37;101034.71;1820735;77;21006;-62
2022/03/16 14:41:19;;;;;;;44.23;32.05;;;;;;;5.51;76.51;101030.53;1826283;77;21260;-62
2022/03/16 14:43:46;;;;;;;42.62;32.78;;;;;;;5.42;76.58;101037.06;1821141;77;22130;-63
2022/03/16 14:46:14;;;;;;;45.55;33.92;;;;;;;5.36;76.63;101039.25;1823548;77;20949;-62
2022/03/16 14:48:40;;;;;;;43.63;33.28;;;;;;;5.37;76.66;101045.28;1824167;76;21088;-63
2022/03/16 14:51:08;;;;;;;50.23;35.73;;;;;;;5.29;76.52;101042.75;1820689;77;20944;-63
2022/03/16 14:53:35;;;;;;;53.48;35.73;;;;;;;5.22;76.68;101045.37;1823765;77;21924;-63
2022/03/16 14:56:02;;;;;;;41.47;31.60;;;;;;;5.22;76.76;101045.37;1820110;77;20941;-63
2022/03/16 14:58:29;;;;;;;41.37;33.10;;;;;;;5.21;76.78;101040.63;1823069;77;21405;-63
2022/03/16 15:00:58;;;;;;;46.65;34.18;;;;;;;5.16;76.67;101038.05;1822944;77;21022;-63
2022/03/16 15:03:25;;;;;;;47.60;35.70;;;;;;;5.14;76.83;101041.06;1824461;77;21549;-63
2022/03/16 15:05:53;;;;;;;40.12;32.28;;;;;;;5.11;76.84;101046.26;1819429;77;21055;-63
2022/03/16 15:08:19;;;;;;;44.58;33.42;;;;;;;5.08;76.85;101043.69;1785474;78;21099;-63
2022/03/16 15:10:46;;;;;;;47.77;35.80;;;;;;;5.07;76.98;101048.45;1747756;81;20995;-63
2022/03/16 15:13:13;;;;;;;54.98;35.88;;;;;;;5.10;77.01;101052.31;1758052;80;21117;-63
2022/03/16 15:15:39;;;;;;;47.65;35.38;;;;;;;5.05;76.85;101046.29;1783779;78;21542;-63
2022/03/16 15:18:08;;;;;;;45.05;35.30;;;;;;;4.95;76.82;101051.05;1786545;79;21086;-63
2022/03/16 15:20:35;;;;;;;43.58;33.90;;;;;;;4.87;76.88;101048.92;1782754;78;20995;-63
2022/03/16 15:23:01;;;;;;;48.78;35.20;;;;;;;4.79;76.86;101050.25;1783907;80;20992;-63
2022/03/16 15:25:29;;;;;;;51.42;36.90;;;;;;;4.71;76.93;101050.27;1783736;78;20992;-63
2022/03/16 15:27:58;;;;;;;42.33;31.52;;;;;;;4.68;77.05;101046.39;1787880;78;20979;-63
2022/03/16 15:30:25;;;;;;;53.25;36.35;;;;;;;4.68;77.21;101050.27;1766129;80;21161;-63
2022/03/16 15:32:54;;;;;;;50.43;36.93;;;;;;;4.66;77.21;101050.70;1784332;78;20987;-63
2022/03/16 15:35:30;;;;;;;49.10;35.00;;;;;;;4.65;77.24;101048.98;1753139;78;21087;-63
2022/03/16 15:37:57;;;;;;;53.40;35.45;;;;;;;4.65;77.21;101047.70;1746719;80;21079;-63
2022/03/16 15:43:10;;;;;;;47.58;34.85;;;;;;;4.40;77.10;101046.86;1749451;79;21191;-64
2022/03/16 15:45:58;;;;;;;46.58;35.23;;;;;;;4.29;77.20;101054.20;1727669;81;20924;-64
2022/03/16 15:48:25;;;;;;;;;;;;;;;4.18;77.22;101050.32;1728536;81;21061;-63
2022/03/16 15:50:52;;;;;;;50.80;36.77;;;;;;;4.11;77.48;101052.02;1728931;81;28164;-64
2022/03/16 15:53:20;;;;;;;46.40;34.88;;;;;;;4.01;77.58;101060.65;1711590;82;21001;-63
2022/03/16 15:55:51;;;;;;;53.33;37.95;;;;;;;3.88;77.46;101060.19;1714049;82;24947;-63
2022/03/16 15:58:22;;;;;;;59.67;41.98;;;;;;;3.75;77.68;101058.89;1720084;81;20926;-64
2022/03/16 16:00:56;;;;;;;58.95;41.18;;;;;;;3.67;77.62;101055.83;1728463;81;21748;-63
2022/03/16 16:03:33;;;;;;;53.42;39.38;;;;;;;3.61;77.59;101057.11;1725381;81;21088;-63
2022/03/16 16:06:07;;;;;;;51.08;38.50;;;;;;;3.54;77.73;101060.13;1720830;81;21128;-64
2022/03/16 16:08:37;;;;;;;53.63;38.53;;;;;;;3.47;77.54;101069.98;1722746;81;21223;-64
2022/03/16 16:11:11;;;;;;;49.30;37.15;;;;;;;3.40;77.61;101075.56;1723537;81;21022;-62
2022/03/16 16:14:05;;;;;;;49.23;34.60;;;;;;;3.30;77.65;101077.66;1681404;83;21095;-62
2022/03/16 16:16:45;;;;;;;51.40;38.15;;;;;;;3.24;77.62;101081.08;1662631;84;21016;-63
2022/03/16 16:19:14;;;;;;;48.13;37.42;;;;;;;3.18;77.93;101091.38;1639384;86;21081;-63
2022/03/16 16:21:41;;;;;;;52.78;38.00;;;;;;;3.10;77.78;101089.19;1638925;86;22574;-62
2022/03/16 16:24:11;;;;;;;53.68;38.35;;;;;;;3.05;77.94;101096.03;1637890;87;23430;-62
2022/03/16 16:26:39;;;;;;;52.55;38.60;;;;;;;2.99;77.83;101102.45;1663667;84;20957;-63
2022/03/16 16:29:13;;;;;;;50.60;37.15;;;;;;;2.93;77.92;101101.14;1665339;84;21092;-63
2022/03/16 16:31:40;;;;;;;49.88;36.42;;;;;;;2.86;77.83;101114.01;1660195;84;20946;-63
2022/03/16 16:35:30;;;;;;;56.08;39.42;;;;;;;2.81;77.96;101107.09;1810434;77;22842;-62
2022/03/16 16:38:03;;;;;;;51.20;38.80;;;;;;;2.67;77.97;101110.43;1773552;80;21590;-62
2022/03/16 16:40:32;;;;;;;55.58;39.88;;;;;;;2.58;77.94;101121.98;1740232;80;21086;-62
2022/03/16 16:43:15;;;;;;;57.93;40.43;;;;;;;2.50;78.01;101124.91;1783482;80;20998;-62
2022/03/16 16:45:57;;;;;;;57.48;41.83;;;;;;;2.43;78.07;101129.14;1778768;78;21014;-63
2022/03/16 16:48:31;;;;;;;53.25;39.05;;;;;;;2.36;78.09;101122.65;1748848;81;20993;-63
2022/03/16 16:51:02;;;;;;;60.10;42.62;;;;;;;2.31;78.19;101123.89;1776944;80;21041;-62
2022/03/16 16:53:37;;;;;;;64.32;47.50;;;;;;;2.20;78.07;101123.78;1741619;81;20981;-62
2022/03/16 16:56:08;;;;;;;75.50;50.92;;;;;;;2.07;78.30;101126.22;1788691;80;21179;-66
2022/03/16 16:58:42;;;;;;;68.05;47.65;;;;;;;1.96;78.37;101128.69;1760035;81;21009;-64
2022/03/16 17:01:13;;;;;;;75.40;50.17;;;;;;;1.85;78.25;101130.28;1742836;80;20985;-63
2022/03/16 17:03:45;;;;;;;79.55;53.75;;;;;;;1.76;78.50;101128.47;1779889;80;20989;-63
2022/03/16 17:06:11;;;;;;;63.40;44.10;;;;;;;1.64;78.34;101136.07;1761021;79;22192;-63
2022/03/16 17:08:42;;;;;;;;;;;;;;;1.55;78.33;101145.41;1759628;80;21598;-63
2022/03/16 17:11:11;;;;;;;62.60;41.28;;;;;;;1.50;78.47;101141.91;1741386;80;20115;-63
2022/03/16 17:13:38;;;;;;;67.05;45.12;;;;;;;1.45;78.62;101140.98;1747589;81;21021;-63
2022/03/16 17:16:08;;;;;;;63.10;43.10;;;;;;;1.41;78.62;101144.38;1747464;81;21669;-63
2022/03/16 17:18:36;;;;;;;63.90;46.33;;;;;;;1.38;78.90;101146.91;1781020;80;21288;-62
2022/03/16 17:21:07;;;;;;;78.25;52.30;;;;;;;1.30;78.62;101156.23;1771272;80;21016;-62
2022/03/16 17:23:35;;;;;;;69.12;49.40;;;;;;;1.21;78.62;101161.27;1782816;80;20946;-63
2022/03/16 17:26:04;;;;;;;72.75;51.02;;;;;;;1.16;78.79;101160.33;1787207;80;21068;-63
2022/03/16 17:28:31;;;;;;;70.30;49.58;;;;;;;1.10;78.77;101160.69;1778376;79;20993;-63
2022/03/16 17:30:58;;;;;;;65.87;47.20;;;;;;;1.05;78.87;101166.17;1779851;80;21119;-63
2022/03/16 17:33:32;;;;;;;70.40;48.40;;;;;;;0.99;79.25;101168.66;1793430;79;21022;-63
2022/03/16 17:36:00;;;;;;;75.52;49.70;;;;;;;0.95;79.10;101172.02;1791835;79;20953;-63
2022/03/16 17:38:27;;;;;;;74.10;50.10;;;;;;;0.92;79.58;101182.25;1763999;79;20953;-64
2022/03/16 17:46:26;;;;;;;75.80;50.88;;;;;;;0.89;79.33;101174.50;1770765;80;21021;-63
2022/03/16 17:49:01;;;;;;;75.08;49.83;;;;;;;0.87;79.29;101171.92;1758029;81;21463;-63
2022/03/16 17:51:22;;;;;;;72.30;49.63;;;;;;;0.89;79.27;101180.92;1784917;79;21028;-63
2022/03/16 17:53:54;;;;;;;;;;;;;;;0.88;79.52;101177.92;1757312;81;20883;-63
2022/03/16 17:59:08;;;;;;;77.70;52.60;;;;;;;0.91;79.70;101180.54;1778891;80;21097;-64
2022/03/16 18:01:34;;;;;;;84.37;52.43;;;;;;;0.92;79.57;101182.25;1756190;81;20982;-64
2022/03/16 18:04:01;;;;;;;79.15;51.98;;;;;;;0.93;79.45;101182.72;1784638;80;21148;-63
2022/03/16 18:06:28;;;;;;;;;;;;;;;0.91;79.98;101183.11;1748716;80;21117;-63
2022/03/16 18:08:57;;;;;;;77.45;51.00;;;;;;;0.86;79.85;101183.02;1776654;80;21091;-64
2022/03/16 18:14:10;;;;;;;84.58;54.67;;;;;;;0.83;81.06;101184.70;1787897;80;21446;-63
2022/03/16 18:16:38;;;;;;;81.82;53.83;;;;;;;0.86;80.19;101184.73;1783242;80;21104;-63
2022/03/16 18:19:05;;;;;;;75.97;51.70;;;;;;;0.88;80.32;101177.92;1757420;81;21029;-64
2022/03/16 18:21:32;;;;;;;82.80;55.20;;;;;;;0.88;80.32;101178.78;1788178;79;21025;-63
2022/03/16 18:23:59;;;;;;;81.63;54.05;;;;;;;0.91;80.36;101184.83;1762373;81;21425;-64
2022/03/16 18:26:26;;;;;;;81.80;53.42;;;;;;;0.91;80.44;101181.83;1755031;80;20950;-63
2022/03/16 18:28:54;;;;;;;81.63;54.03;;;;;;;0.92;80.40;101187.40;1757815;81;21056;-64
2022/03/16 18:31:21;;;;;;;84.95;53.95;;;;;;;0.92;80.48;101179.69;1779116;80;21668;-63
2022/03/16 18:33:48;;;;;;;86.43;55.27;;;;;;;0.94;80.59;101185.73;1755452;80;21094;-63
2022/03/16 18:36:15;;;;;;;82.35;53.65;;;;;;;0.94;80.62;101175.44;1778363;80;25331;-65
2022/03/16 18:38:42;;;;;;;79.37;52.78;;;;;;;0.92;80.67;101177.11;1759007;80;21807;-66
2022/03/16 18:41:14;;;;;;;80.28;53.90;;;;;;;0.88;80.88;101176.63;1786515;80;20989;-64
2022/03/16 18:43:39;;;;;;;79.58;53.80;;;;;;;0.88;80.88;101176.63;1779653;80;21531;-64
2022/03/16 18:46:12;;;;;;;73.27;51.43;;;;;;;0.86;80.95;101183.45;1780516;79;21130;-65
2022/03/16 18:48:36;;;;;;;77.47;53.02;;;;;;;0.87;80.83;101183.92;1787318;78;20931;-63
2022/03/16 18:51:13;;;;;;;80.73;54.57;;;;;;;0.85;80.81;101189.45;1758747;81;21005;-65
2022/03/16 18:53:34;;;;;;;79.15;51.45;;;;;;;0.83;80.79;101180.84;1779585;80;21226;-64
2022/03/16 18:56:01;;;;;;;81.55;53.33;;;;;;;0.80;80.93;101189.79;1763106;81;21056;-64
2022/03/16 18:58:28;;;;;;;;;;;;;;;0.76;80.81;101199.17;1786239;79;21586;-64
2022/03/16 19:00:56;;;;;;;86.28;56.77;;;;;;;0.74;81.14;101194.84;1748661;81;20092;-64
2022/03/16 19:03:22;;;;;;;;;;;;;;;0.72;81.13;101199.08;1772681;81;20986;-64
2022/03/16 19:05:51;;;;;;;81.00;53.08;;;;;;;0.72;81.11;101199.94;1767497;81;20152;-64
2022/03/16 19:08:22;;;;;;;83.37;54.18;;;;;;;0.69;81.13;101204.17;1766170;80;21008;-64
2022/03/16 19:16:05;;;;;;;72.67;50.73;;;;;;;0.57;81.04;101215.98;1784549;80;20989;-64
2022/03/16 19:18:34;;;;;;;74.25;51.83;;;;;;;0.54;81.14;101215.93;1780251;79;20954;-66
2022/03/16 19:21:01;;;;;;;77.30;52.58;;;;;;;0.50;81.23;101217.98;1758255;80;21032;-65
2022/03/16 19:23:28;;;;;;;74.55;51.05;;;;;;;0.46;81.27;101209.78;1786212;80;22483;-64
2022/03/16 19:28:45;;;;;;;72.97;52.77;;;;;;;0.39;81.33;101213.96;1723388;82;21028;-63
2022/03/16 19:31:14;;;;;;;77.95;53.98;;;;;;;0.35;81.41;101216.44;1702986;82;21705;-63
2022/03/16 19:33:40;;;;;;;79.25;53.20;;;;;;;0.33;81.47;101220.67;1707668;82;21552;-63
2022/03/16 19:36:08;;;;;;;81.80;56.50;;;;;;;0.29;81.75;101219.76;1698758;82;21615;-63
2022/03/16 19:38:51;;;;;;;77.87;53.95;;;;;;;0.29;81.72;101217.61;1705935;83;21022;-63
2022/03/16 19:41:05;;;;;;;78.33;54.63;;;;;;;0.32;82.04;101218.95;1700634;83;21544;-64
2022/03/16 19:43:32;;;;;;;83.37;55.52;;;;;;;0.34;82.09;101219.86;1711113;83;21030;-64
2022/03/16 19:45:59;;;;;;;82.93;56.03;;;;;;;0.31;82.08;101219.77;1706483;83;21017;-64
2022/03/16 19:48:25;;;;;;;84.30;55.48;;;;;;;0.32;82.19;101218.95;1707434;83;21797;-64
2022/03/16 19:50:52;;;;;;;88.65;57.25;;;;;;;0.30;82.13;101219.33;1706988;83;21558;-64
2022/03/16 19:53:21;;;;;;;88.52;55.85;;;;;;;0.34;82.39;101219.43;1697848;83;21094;-64
2022/03/16 19:55:50;;;;;;;84.90;55.38;;;;;;;0.39;82.46;101224.63;1704901;82;20952;-63
2022/03/16 19:58:17;;;;;;;76.05;53.95;;;;;;;0.44;82.49;101221.73;1707295;82;21011;-64
2022/03/16 20:00:47;;;;;;;87.40;56.73;;;;;;;0.49;82.50;101226.97;1688919;84;21531;-64
2022/03/16 20:03:16;;;;;;;79.65;53.73;;;;;;;0.42;82.28;101228.54;1718766;81;20960;-64
2022/03/16 20:05:45;;;;;;;79.00;54.15;;;;;;;0.34;82.29;101230.13;1697528;82;21672;-64
2022/03/16 20:08:11;;;;;;;83.45;58.78;;;;;;;0.29;82.34;101231.75;1704307;83;20974;-62
2022/03/16 20:10:39;;;;;;;94.72;59.08;;;;;;;0.25;82.43;101232.51;1695428;83;20993;-63
2022/03/16 20:13:05;;;;;;;;;;;;;;;0.29;82.59;101239.45;1703824;82;21005;-63
2022/03/16 20:15:32;;;;;;;91.17;58.80;;;;;;;0.30;82.71;101234.33;1755331;80;20094;-63
2022/03/16 20:17:59;;;;;;;102.03;60.13;;;;;;;0.31;82.70;101237.75;1755964;80;21427;-63
2022/03/16 20:20:26;;;;;;;88.97;61.53;;;;;;;0.33;82.79;101236.09;1756760;80;21340;-63
2022/03/16 20:22:53;;;;;;;89.65;62.20;;;;;;;0.36;82.80;101237.00;1754272;80;20995;-64
2022/03/16 20:25:21;;;;;;;98.20;62.70;;;;;;;0.38;82.77;101244.75;1731995;81;21888;-64
2022/03/16 20:27:48;;;;;;;89.65;60.45;;;;;;;0.36;82.73;101236.14;1755141;80;20997;-66
2022/03/16 20:30:15;;;;;;;92.70;61.73;;;;;;;0.26;82.51;101244.53;1754856;80;21006;-63
2022/03/16 20:32:42;;;;;;;85.53;58.20;;;;;;;0.19;82.67;101244.39;1756087;80;21057;-63
2022/03/16 20:35:12;;;;;;;89.42;61.35;;;;;;;0.15;82.74;101237.48;1750603;80;21002;-64
2022/03/16 20:37:39;;;;;;;91.90;61.90;;;;;;;0.12;82.73;101237.42;1723000;82;23205;-64
2022/03/16 20:40:08;;;;;;;96.25;63.30;;;;;;;0.10;82.75;101236.52;1699532;82;21123;-64
2022/03/16 20:42:36;;;;;;;94.50;62.85;;;;;;;0.09;82.87;101237.79;1725351;81;21024;-64
2022/03/16 20:45:04;;;;;;;98.70;63.00;;;;;;;0.08;82.89;101235.61;1710356;83;20967;-64
2022/03/16 20:47:31;;;;;;;108.47;67.17;;;;;;;0.07;82.89;101241.59;1678414;83;20977;-64
2022/03/16 20:50:03;;;;;;;109.10;65.47;;;;;;;0.05;82.97;101243.25;1702859;83;21101;-64
2022/03/16 20:52:36;;;;;;;95.70;61.15;;;;;;;0.04;83.10;101231.27;1686090;84;21596;-64
2022/03/16 20:54:59;;;;;;;101.75;65.05;;;;;;;0.03;83.08;101241.10;1707787;82;21071;-64
2022/03/16 20:57:26;;;;;;;83.87;55.83;;;;;;;-0.01;83.12;101238.01;1708060;82;21588;-63
2022/03/16 21:02:39;;;;;;;92.30;58.98;;;;;;;-0.06;83.25;101241.75;1709526;83;21947;-63
2022/03/16 21:05:06;;;;;;;76.67;54.80;;;;;;;-0.07;83.30;101240.45;1707970;82;21580;-63
2022/03/16 21:07:33;;;;;;;88.75;59.95;;;;;;;-0.06;83.26;101240.89;1688039;83;20926;-63
2022/03/16 21:10:02;;;;;;;91.17;61.13;;;;;;;-0.14;83.24;101246.28;1722289;81;21080;-63
2022/03/16 21:12:28;;;;;;;97.72;63.68;;;;;;;-0.20;83.32;101248.73;1713365;82;21550;-63
2022/03/16 21:14:55;;;;;;;100.18;62.30;;;;;;;-0.21;83.43;101247.01;1706693;82;21434;-63
2022/03/16 21:17:23;;;;;;;93.10;60.95;;;;;;;-0.16;83.60;101255.68;1710889;82;21564;-63
2022/03/16 21:19:51;;;;;;;97.57;62.70;;;;;;;-0.17;83.54;101253.92;1751956;80;21589;-63
2022/03/16 21:22:18;;;;;;;90.30;60.48;;;;;;;-0.21;83.53;101254.70;1755489;80;21583;-63
2022/03/16 21:24:45;;;;;;;101.15;59.50;;;;;;;-0.24;83.58;101264.07;1717373;82;21071;-63
2022/03/16 21:27:12;;;;;;;86.30;59.80;;;;;;;-0.26;83.60;101259.31;1701877;84;21110;-63
2022/03/16 21:29:38;;;;;;;76.35;53.25;;;;;;;-0.26;83.64;101259.31;1693385;83;20959;-63
2022/03/16 21:32:06;;;;;;;77.37;54.73;;;;;;;-0.29;83.58;101259.25;1724652;81;21404;-63
2022/03/16 21:34:33;;;;;;;87.00;56.30;;;;;;;-0.34;83.55;101265.98;1726587;81;21036;-63
2022/03/16 21:37:00;;;;;;;78.62;52.95;;;;;;;-0.37;83.64;101258.21;1691400;83;21361;-63
2022/03/16 21:39:27;;;;;;;77.67;53.20;;;;;;;-0.41;83.66;101255.14;1750269;82;21506;-63
2022/03/16 21:44:47;;;;;;;76.55;54.93;;;;;;;-0.50;83.68;101262.65;1711885;81;21747;-63
2022/03/16 21:47:15;;;;;;;76.55;53.35;;;;;;;-0.51;83.76;101257.05;1690911;83;21017;-63
2022/03/16 21:49:43;;;;;;;86.20;55.58;;;;;;;-0.58;83.75;101257.76;1702761;84;21005;-63
2022/03/16 21:52:16;;;;;;;85.15;55.00;;;;;;;-0.65;83.72;101262.28;1749605;81;21130;-64
2022/03/16 21:54:47;;;;;;;79.45;53.08;;;;;;;-0.69;83.71;101260.94;1717099;81;21061;-63
2022/03/16 21:57:14;;;;;;;82.45;52.27;;;;;;;-0.76;83.78;101262.89;1696389;83;21674;-63
2022/03/16 21:59:42;;;;;;;77.80;51.83;;;;;;;-0.82;83.86;101267.87;1722653;82;21110;-63
2022/03/16 22:02:09;;;;;;;78.15;51.80;;;;;;;-0.86;83.89;101267.37;1698325;83;20976;-63
2022/03/16 22:04:36;;;;;;;79.47;55.48;;;;;;;-0.91;83.96;101265.10;1702833;83;22068;-63
2022/03/16 22:07:05;;;;;;;78.62;51.53;;;;;;;-0.91;84.00;101265.10;1696155;84;21472;-63
2022/03/16 22:09:33;;;;;;;82.80;55.10;;;;;;;-0.93;84.05;101271.88;1727219;82;21476;-63
2022/03/16 22:12:00;;;;;;;81.60;51.75;;;;;;;-0.94;84.04;101266.31;1698024;83;21040;-64
2022/03/16 22:14:27;;;;;;;78.97;49.27;;;;;;;-0.93;84.03;101270.60;1697791;83;20964;-63
2022/03/16 22:16:53;;;;;;;77.00;51.30;;;;;;;-0.95;84.08;101271.00;1698741;83;21447;-63
2022/03/16 22:19:21;;;;;;;74.50;51.30;;;;;;;-0.97;84.05;101271.37;1699084;83;22485;-63
2022/03/16 22:21:49;;;;;;;83.22;51.10;;;;;;;-0.99;84.10;101266.61;1696290;83;21318;-63
2022/03/16 22:24:16;;;;;;;74.27;49.00;;;;;;;-0.98;84.23;101269.62;1725277;83;20999;-63
2022/03/16 22:26:43;;;;;;;79.25;50.90;;;;;;;-0.98;84.38;101269.62;1705106;82;21592;-63
2022/03/16 22:29:10;;;;;;;79.90;50.43;;;;;;;-0.96;84.37;101266.69;1733620;81;21065;-63
2022/03/16 22:31:37;;;;;;;83.17;52.70;;;;;;;-0.94;84.43;101259.91;1730608;81;21007;-63
2022/03/16 22:34:04;;;;;;;87.22;54.90;;;;;;;-0.95;84.49;101269.30;1731294;81;21462;-63
2022/03/16 22:36:31;;;;;;;80.47;53.13;;;;;;;-0.94;84.54;101265.03;1729918;82;21026;-63
2022/03/16 22:38:58;;;;;;;78.47;52.48;;;;;;;-0.92;84.52;101271.08;1728952;81;21508;-63
2022/03/16 22:41:26;;;;;;;74.32;48.28;;;;;;;-0.92;84.60;101268.51;1730735;81;21863;-63
2022/03/16 22:43:54;;;;;;;75.47;50.08;;;;;;;-0.94;84.57;101279.14;1730108;81;21014;-63
2022/03/16 22:46:22;;;;;;;67.85;45.50;;;;;;;-0.96;84.70;101282.06;1729832;81;21003;-63
2022/03/16 22:48:49;;;;;;;84.42;50.28;;;;;;;-0.98;84.80;101281.16;1730291;81;20952;-63
2022/03/16 22:51:15;;;;;;;76.10;50.30;;;;;;;-0.97;84.88;101277.78;1730055;81;21070;-64
2022/03/16 22:53:42;;;;;;;77.53;49.67;;;;;;;-0.96;84.99;101278.22;1729631;81;21399;-63
2022/03/16 22:56:10;;;;;;;80.25;48.10;;;;;;;-0.98;85.11;101277.31;1730866;81;21516;-64
2022/03/16 22:58:38;;;;;;;76.77;49.80;;;;;;;-1.00;85.16;101273.44;1729837;81;20999;-63
2022/03/16 23:01:05;;;;;;;78.97;50.08;;;;;;;-1.02;85.13;101275.52;1730467;81;21015;-63
2022/03/16 23:03:32;;;;;;;87.55;53.98;;;;;;;-1.05;85.20;101276.72;1729542;81;21048;-63
2022/03/16 23:05:59;;;;;;;78.22;49.88;;;;;;;-1.09;85.29;101290.27;1730100;81;21117;-63
2022/03/16 23:08:25;;;;;;;86.97;51.05;;;;;;;-1.15;85.36;101275.22;1730818;81;20968;-63
2022/03/16 23:10:52;;;;;;;85.10;52.03;;;;;;;-1.20;85.44;101279.36;1730495;81;20935;-63
2022/03/16 23:13:20;;;;;;;82.77;51.23;;;;;;;-1.21;85.57;101273.76;1730298;81;20921;-63
2022/03/16 23:15:46;;;;;;;86.05;54.27;;;;;;;-1.21;85.55;101280.16;1708703;82;20921;-63
2022/03/16 23:18:13;;;;;;;84.97;50.50;;;;;;;-1.21;85.59;101269.91;1730094;82;21444;-64
2022/03/16 23:20:40;;;;;;;89.07;51.37;;;;;;;-1.21;85.68;101271.20;1726882;81;21071;-63
2022/03/16 23:23:07;;;;;;;87.27;53.40;;;;;;;-1.21;85.70;101265.20;1730106;82;21607;-63
2022/03/16 23:25:35;;;;;;;86.75;52.55;;;;;;;-1.18;85.76;101275.53;1731063;81;21533;-63
2022/03/16 23:28:02;;;;;;;85.00;52.53;;;;;;;-1.17;85.80;101273.02;1730178;80;21006;-64
2022/03/16 23:30:29;;;;;;;86.95;53.25;;;;;;;-1.15;85.81;101273.94;1746262;80;21937;-63
2022/03/16 23:32:57;;;;;;;93.67;55.83;;;;;;;-1.15;85.84;101266.25;1718341;81;21011;-63
2022/03/16 23:35:23;;;;;;;87.57;50.10;;;;;;;-1.14;85.86;101267.97;1688321;83;21300;-64
2022/03/16 23:37:50;;;;;;;85.63;50.20;;;;;;;-1.14;85.96;101270.53;1702496;83;21545;-63
2022/03/16 23:40:17;;;;;;;91.70;56.00;;;;;;;-1.13;85.98;101276.52;1723447;81;20984;-63
2022/03/16 23:42:44;;;;;;;83.82;49.20;;;;;;;-1.15;86.01;101279.06;1691205;83;21948;-63
2022/03/16 23:45:12;;;;;;;77.20;47.10;;;;;;;-1.14;86.08;101280.79;1693065;83;28327;-63
2022/03/16 23:47:39;;;;;;;;;;;;;;;-1.14;86.15;101282.06;1693248;83;21074;-63
2022/03/16 23:50:08;;;;;;;79.47;48.95;;;;;;;-1.15;86.20;101276.50;1704174;82;27337;-63
2022/03/16 23:52:35;;;;;;;78.52;48.95;;;;;;;-1.15;86.26;101281.63;1704713;82;21021;-63
2022/03/16 23:55:03;;;;;;;84.87;49.10;;;;;;;-1.15;86.27;101281.63;1699330;83;21093;-64
2022/03/16 23:57:30;;;;;;;77.82;49.42;;;;;;;-1.15;86.31;101279.06;1706906;82;21023;-64
2022/03/16 23:59:57;;;;;;;80.80;47.70;;;;;;;-1.16;86.28;101279.02;1706261;82;20948;-63
